sensor_id;sensor_type;location;lat;lon;timestamp;P1;durP1;ratioP1;P2;durP2;ratioP2
55220;SDS011;41089;51.448;6.604;2022-08-11T00:01:25;4.18;;;2.50;;
55220;SDS011;41089;51.448;6.604;2022-08-11T00:07:26;3.58;;;2.30;;
55220;SDS011;41089;51.448;6.604;2022-08-11T00:13:31;5.65;;;2.38;;
55220;SDS011;41089;51.448;6.604;2022-08-11T00:19:43;3.72;;;2.28;;
55220;SDS011;41089;51.448;6.604;2022-08-11T00:25:46;6.13;;;2.45;;
55220;SDS011;41089;51.448;6.604;2022-08-11T00:31:49;5.25;;;3.10;;
55220;SDS011;41089;51.448;6.604;2022-08-11T00:37:52;4.05;;;2.67;;
55220;SDS011;41089;51.448;6.604;2022-08-11T01:03:32;6.07;;;2.60;;
55220;SDS011;41089;51.448;6.604;2022-08-11T01:29:23;3.50;;;2.33;;
55220;SDS011;41089;51.448;6.604;2022-08-11T01:48:05;4.82;;;2.30;;
55220;SDS011;41089;51.448;6.604;2022-08-11T01:54:41;7.10;;;2.97;;
55220;SDS011;41089;51.448;6.604;2022-08-11T02:01:06;3.75;;;2.38;;
55220;SDS011;41089;51.448;6.604;2022-08-11T02:19:48;4.68;;;2.53;;
55220;SDS011;41089;51.448;6.604;2022-08-11T02:32:19;6.82;;;3.20;;
55220;SDS011;41089;51.448;6.604;2022-08-11T02:51:24;7.78;;;3.60;;
55220;SDS011;41089;51.448;6.604;2022-08-11T02:57:34;9.48;;;4.72;;
55220;SDS011;41089;51.448;6.604;2022-08-11T03:09:58;5.38;;;2.83;;
55220;SDS011;41089;51.448;6.604;2022-08-11T03:29:31;11.32;;;2.67;;
55220;SDS011;41089;51.448;6.604;2022-08-11T03:35:42;7.18;;;2.85;;
55220;SDS011;41089;51.448;6.604;2022-08-11T03:48:07;6.00;;;3.40;;
55220;SDS011;41089;51.448;6.604;2022-08-11T04:07:16;5.80;;;2.92;;
55220;SDS011;41089;51.448;6.604;2022-08-11T04:13:56;5.95;;;2.92;;
55220;SDS011;41089;51.448;6.604;2022-08-11T04:59:31;5.80;;;3.05;;
55220;SDS011;41089;51.448;6.604;2022-08-11T05:12:15;6.22;;;2.78;;
55220;SDS011;41089;51.448;6.604;2022-08-11T05:18:25;9.48;;;3.83;;
55220;SDS011;41089;51.448;6.604;2022-08-11T05:24:51;8.13;;;3.67;;
55220;SDS011;41089;51.448;6.604;2022-08-11T05:31:25;7.18;;;3.17;;
55220;SDS011;41089;51.448;6.604;2022-08-11T05:37:50;5.28;;;3.28;;
55220;SDS011;41089;51.448;6.604;2022-08-11T05:44:09;10.60;;;4.00;;
55220;SDS011;41089;51.448;6.604;2022-08-11T05:50:29;7.85;;;3.38;;
55220;SDS011;41089;51.448;6.604;2022-08-11T05:56:51;11.07;;;4.10;;
55220;SDS011;41089;51.448;6.604;2022-08-11T06:02:58;11.02;;;3.90;;
55220;SDS011;41089;51.448;6.604;2022-08-11T06:09:03;12.38;;;4.55;;
55220;SDS011;41089;51.448;6.604;2022-08-11T06:15:04;13.18;;;4.03;;
55220;SDS011;41089;51.448;6.604;2022-08-11T06:21:08;8.38;;;5.10;;
55220;SDS011;41089;51.448;6.604;2022-08-11T06:27:09;8.02;;;3.40;;
55220;SDS011;41089;51.448;6.604;2022-08-11T06:33:10;7.97;;;3.80;;
55220;SDS011;41089;51.448;6.604;2022-08-11T06:45:28;12.30;;;4.15;;
55220;SDS011;41089;51.448;6.604;2022-08-11T06:51:47;8.32;;;3.20;;
55220;SDS011;41089;51.448;6.604;2022-08-11T06:57:48;10.30;;;3.55;;
55220;SDS011;41089;51.448;6.604;2022-08-11T07:04:07;9.30;;;3.40;;
55220;SDS011;41089;51.448;6.604;2022-08-11T07:17:22;6.00;;;3.63;;
55220;SDS011;41089;51.448;6.604;2022-08-11T07:23:23;5.35;;;3.85;;
55220;SDS011;41089;51.448;6.604;2022-08-11T07:29:45;13.00;;;4.22;;
55220;SDS011;41089;51.448;6.604;2022-08-11T07:35:48;7.78;;;3.28;;
55220;SDS011;41089;51.448;6.604;2022-08-11T07:41:50;6.82;;;3.65;;
55220;SDS011;41089;51.448;6.604;2022-08-11T07:47:52;6.13;;;3.38;;
55220;SDS011;41089;51.448;6.604;2022-08-11T07:54:12;12.85;;;5.05;;
55220;SDS011;41089;51.448;6.604;2022-08-11T08:00:15;11.45;;;5.47;;
55220;SDS011;41089;51.448;6.604;2022-08-11T08:12:54;7.65;;;4.47;;
55220;SDS011;41089;51.448;6.604;2022-08-11T08:19:14;6.35;;;4.18;;
55220;SDS011;41089;51.448;6.604;2022-08-11T08:25:15;8.30;;;4.63;;
55220;SDS011;41089;51.448;6.604;2022-08-11T08:31:16;6.90;;;3.92;;
55220;SDS011;41089;51.448;6.604;2022-08-11T08:37:18;9.17;;;3.80;;
55220;SDS011;41089;51.448;6.604;2022-08-11T08:43:20;9.05;;;3.80;;
55220;SDS011;41089;51.448;6.604;2022-08-11T08:49:22;8.27;;;3.75;;
55220;SDS011;41089;51.448;6.604;2022-08-11T08:55:27;11.77;;;4.38;;
55220;SDS011;41089;51.448;6.604;2022-08-11T09:01:32;8.65;;;5.10;;
55220;SDS011;41089;51.448;6.604;2022-08-11T09:07:53;13.13;;;6.70;;
55220;SDS011;41089;51.448;6.604;2022-08-11T09:13:54;10.10;;;5.75;;
55220;SDS011;41089;51.448;6.604;2022-08-11T09:20:18;11.60;;;5.82;;
55220;SDS011;41089;51.448;6.604;2022-08-11T09:26:18;6.93;;;4.45;;
55220;SDS011;41089;51.448;6.604;2022-08-11T09:32:37;8.65;;;4.80;;
55220;SDS011;41089;51.448;6.604;2022-08-11T09:38:38;10.35;;;4.30;;
55220;SDS011;41089;51.448;6.604;2022-08-11T09:44:58;8.88;;;4.47;;
55220;SDS011;41089;51.448;6.604;2022-08-11T09:50:59;5.72;;;4.10;;
55220;SDS011;41089;51.448;6.604;2022-08-11T09:57:00;9.25;;;4.68;;
55220;SDS011;41089;51.448;6.604;2022-08-11T10:03:23;5.40;;;3.58;;
55220;SDS011;41089;51.448;6.604;2022-08-11T10:09:24;5.07;;;3.72;;
55220;SDS011;41089;51.448;6.604;2022-08-11T10:15:25;8.77;;;3.42;;
55220;SDS011;41089;51.448;6.604;2022-08-11T10:21:38;3.30;;;2.40;;
55220;SDS011;41089;51.448;6.604;2022-08-11T10:27:41;6.70;;;2.60;;
55220;SDS011;41089;51.448;6.604;2022-08-11T10:33:45;6.25;;;3.22;;
55220;SDS011;41089;51.448;6.604;2022-08-11T10:40:05;5.07;;;2.95;;
55220;SDS011;41089;51.448;6.604;2022-08-11T10:46:08;2.60;;;2.40;;
55220;SDS011;41089;51.448;6.604;2022-08-11T10:52:27;5.35;;;2.70;;
55220;SDS011;41089;51.448;6.604;2022-08-11T10:58:46;5.97;;;3.10;;
55220;SDS011;41089;51.448;6.604;2022-08-11T11:11:08;4.90;;;2.70;;
55220;SDS011;41089;51.448;6.604;2022-08-11T11:17:09;5.03;;;2.67;;
55220;SDS011;41089;51.448;6.604;2022-08-11T11:23:37;10.70;;;3.22;;
55220;SDS011;41089;51.448;6.604;2022-08-11T11:30:05;5.40;;;2.35;;
55220;SDS011;41089;51.448;6.604;2022-08-11T11:36:10;5.30;;;2.88;;
55220;SDS011;41089;51.448;6.604;2022-08-11T11:42:15;6.05;;;2.90;;
55220;SDS011;41089;51.448;6.604;2022-08-11T11:48:17;6.53;;;3.13;;
55220;SDS011;41089;51.448;6.604;2022-08-11T11:54:28;4.43;;;2.28;;
55220;SDS011;41089;51.448;6.604;2022-08-11T12:00:32;3.65;;;2.50;;
55220;SDS011;41089;51.448;6.604;2022-08-11T12:06:52;3.85;;;2.42;;
55220;SDS011;41089;51.448;6.604;2022-08-11T12:13:12;3.58;;;2.80;;
55220;SDS011;41089;51.448;6.604;2022-08-11T12:19:33;3.50;;;2.47;;
55220;SDS011;41089;51.448;6.604;2022-08-11T12:25:33;3.43;;;2.50;;
55220;SDS011;41089;51.448;6.604;2022-08-11T12:31:53;5.00;;;2.80;;
55220;SDS011;41089;51.448;6.604;2022-08-11T12:37:54;3.53;;;2.60;;
55220;SDS011;41089;51.448;6.604;2022-08-11T12:43:57;5.15;;;2.97;;
55220;SDS011;41089;51.448;6.604;2022-08-11T12:50:17;5.32;;;2.60;;
55220;SDS011;41089;51.448;6.604;2022-08-11T12:56:38;5.72;;;3.00;;
55220;SDS011;41089;51.448;6.604;2022-08-11T13:03:01;5.03;;;2.55;;
55220;SDS011;41089;51.448;6.604;2022-08-11T13:09:21;6.20;;;2.75;;
55220;SDS011;41089;51.448;6.604;2022-08-11T13:15:23;6.90;;;3.00;;
55220;SDS011;41089;51.448;6.604;2022-08-11T13:21:24;5.82;;;2.80;;
55220;SDS011;41089;51.448;6.604;2022-08-11T13:27:25;6.15;;;2.58;;
55220;SDS011;41089;51.448;6.604;2022-08-11T13:33:26;11.17;;;2.97;;
55220;SDS011;41089;51.448;6.604;2022-08-11T13:39:28;3.83;;;2.50;;
55220;SDS011;41089;51.448;6.604;2022-08-11T13:45:29;5.53;;;3.20;;
55220;SDS011;41089;51.448;6.604;2022-08-11T13:51:30;8.60;;;3.17;;
55220;SDS011;41089;51.448;6.604;2022-08-11T13:57:34;6.22;;;2.92;;
55220;SDS011;41089;51.448;6.604;2022-08-11T14:03:35;5.80;;;2.80;;
55220;SDS011;41089;51.448;6.604;2022-08-11T14:09:36;4.90;;;3.13;;
55220;SDS011;41089;51.448;6.604;2022-08-11T14:15:40;5.45;;;3.15;;
55220;SDS011;41089;51.448;6.604;2022-08-11T14:21:41;3.88;;;3.00;;
55220;SDS011;41089;51.448;6.604;2022-08-11T14:28:02;5.18;;;2.78;;
55220;SDS011;41089;51.448;6.604;2022-08-11T14:34:05;4.00;;;3.00;;
55220;SDS011;41089;51.448;6.604;2022-08-11T14:40:07;8.80;;;2.65;;
55220;SDS011;41089;51.448;6.604;2022-08-11T14:46:29;5.68;;;2.70;;
55220;SDS011;41089;51.448;6.604;2022-08-11T14:58:50;6.20;;;2.97;;
55220;SDS011;41089;51.448;6.604;2022-08-11T15:04:50;5.32;;;2.70;;
55220;SDS011;41089;51.448;6.604;2022-08-11T15:10:52;4.43;;;2.50;;
55220;SDS011;41089;51.448;6.604;2022-08-11T15:16:52;3.87;;;2.90;;
55220;SDS011;41089;51.448;6.604;2022-08-11T15:23:07;5.57;;;2.92;;
55220;SDS011;41089;51.448;6.604;2022-08-11T15:29:28;5.35;;;2.90;;
55220;SDS011;41089;51.448;6.604;2022-08-11T15:35:53;5.78;;;2.63;;
55220;SDS011;41089;51.448;6.604;2022-08-11T15:42:14;4.30;;;3.00;;
55220;SDS011;41089;51.448;6.604;2022-08-11T15:48:38;5.53;;;2.75;;
55220;SDS011;41089;51.448;6.604;2022-08-11T15:54:40;4.95;;;2.42;;
55220;SDS011;41089;51.448;6.604;2022-08-11T16:00:42;5.60;;;2.70;;
55220;SDS011;41089;51.448;6.604;2022-08-11T16:07:10;4.30;;;3.15;;
55220;SDS011;41089;51.448;6.604;2022-08-11T16:13:11;4.32;;;2.67;;
55220;SDS011;41089;51.448;6.604;2022-08-11T16:19:12;3.45;;;2.78;;
55220;SDS011;41089;51.448;6.604;2022-08-11T16:25:15;4.22;;;2.65;;
55220;SDS011;41089;51.448;6.604;2022-08-11T16:31:18;2.53;;;2.28;;
55220;SDS011;41089;51.448;6.604;2022-08-11T16:37:20;5.90;;;2.60;;
55220;SDS011;41089;51.448;6.604;2022-08-11T16:43:43;4.35;;;2.38;;
55220;SDS011;41089;51.448;6.604;2022-08-11T16:50:04;5.43;;;2.80;;
55220;SDS011;41089;51.448;6.604;2022-08-11T16:56:05;4.28;;;2.50;;
55220;SDS011;41089;51.448;6.604;2022-08-11T17:08:42;5.05;;;2.50;;
55220;SDS011;41089;51.448;6.604;2022-08-11T17:15:05;4.28;;;2.85;;
55220;SDS011;41089;51.448;6.604;2022-08-11T17:21:30;5.93;;;2.95;;
55220;SDS011;41089;51.448;6.604;2022-08-11T17:27:33;6.60;;;2.78;;
55220;SDS011;41089;51.448;6.604;2022-08-11T17:33:34;6.63;;;2.90;;
55220;SDS011;41089;51.448;6.604;2022-08-11T17:39:54;5.60;;;2.55;;
55220;SDS011;41089;51.448;6.604;2022-08-11T17:45:55;4.70;;;2.33;;
55220;SDS011;41089;51.448;6.604;2022-08-11T17:52:15;4.75;;;2.47;;
55220;SDS011;41089;51.448;6.604;2022-08-11T17:58:34;2.60;;;2.40;;
55220;SDS011;41089;51.448;6.604;2022-08-11T18:05:04;4.75;;;2.50;;
55220;SDS011;41089;51.448;6.604;2022-08-11T18:11:05;4.50;;;2.45;;
55220;SDS011;41089;51.448;6.604;2022-08-11T18:17:25;5.32;;;2.50;;
55220;SDS011;41089;51.448;6.604;2022-08-11T18:23:44;9.10;;;2.47;;
55220;SDS011;41089;51.448;6.604;2022-08-11T18:30:04;3.90;;;2.85;;
55220;SDS011;41089;51.448;6.604;2022-08-11T18:36:26;4.53;;;2.55;;
55220;SDS011;41089;51.448;6.604;2022-08-11T18:42:48;4.75;;;2.72;;
55220;SDS011;41089;51.448;6.604;2022-08-11T18:49:11;6.28;;;2.70;;
55220;SDS011;41089;51.448;6.604;2022-08-11T18:55:33;3.72;;;2.78;;
55220;SDS011;41089;51.448;6.604;2022-08-11T19:01:52;7.35;;;3.10;;
55220;SDS011;41089;51.448;6.604;2022-08-11T19:08:13;4.68;;;2.97;;
55220;SDS011;41089;51.448;6.604;2022-08-11T19:14:34;3.90;;;2.88;;
55220;SDS011;41089;51.448;6.604;2022-08-11T19:20:53;10.48;;;3.53;;
55220;SDS011;41089;51.448;6.604;2022-08-11T19:27:14;3.75;;;2.75;;
55220;SDS011;41089;51.448;6.604;2022-08-11T19:33:33;9.93;;;4.32;;
55220;SDS011;41089;51.448;6.604;2022-08-11T19:39:57;7.68;;;3.67;;
55220;SDS011;41089;51.448;6.604;2022-08-11T19:46:18;4.57;;;3.00;;
55220;SDS011;41089;51.448;6.604;2022-08-11T19:52:39;10.68;;;3.55;;
55220;SDS011;41089;51.448;6.604;2022-08-11T19:58:58;3.70;;;2.92;;
55220;SDS011;41089;51.448;6.604;2022-08-11T20:05:18;4.13;;;3.15;;
55220;SDS011;41089;51.448;6.604;2022-08-11T20:17:59;5.18;;;3.13;;
55220;SDS011;41089;51.448;6.604;2022-08-11T20:24:18;3.42;;;2.90;;
55220;SDS011;41089;51.448;6.604;2022-08-11T20:30:38;4.38;;;3.40;;
55220;SDS011;41089;51.448;6.604;2022-08-11T20:36:58;8.93;;;3.88;;
55220;SDS011;41089;51.448;6.604;2022-08-11T20:43:18;9.65;;;3.00;;
55220;SDS011;41089;51.448;6.604;2022-08-11T20:49:38;6.05;;;3.20;;
55220;SDS011;41089;51.448;6.604;2022-08-11T20:55:59;6.07;;;3.50;;
55220;SDS011;41089;51.448;6.604;2022-08-11T21:02:18;7.95;;;3.88;;
55220;SDS011;41089;51.448;6.604;2022-08-11T21:08:37;7.28;;;3.40;;
55220;SDS011;41089;51.448;6.604;2022-08-11T21:14:58;10.35;;;3.45;;
55220;SDS011;41089;51.448;6.604;2022-08-11T21:27:36;6.50;;;3.13;;
55220;SDS011;41089;51.448;6.604;2022-08-11T21:33:56;9.77;;;3.28;;
55220;SDS011;41089;51.448;6.604;2022-08-11T21:40:16;7.68;;;3.72;;
55220;SDS011;41089;51.448;6.604;2022-08-11T21:46:37;7.85;;;4.40;;
55220;SDS011;41089;51.448;6.604;2022-08-11T21:59:15;6.47;;;3.43;;
55220;SDS011;41089;51.448;6.604;2022-08-11T22:05:41;6.68;;;3.25;;
55220;SDS011;41089;51.448;6.604;2022-08-11T22:12:01;5.35;;;3.25;;
55220;SDS011;41089;51.448;6.604;2022-08-11T22:24:39;4.77;;;2.90;;
55220;SDS011;41089;51.448;6.604;2022-08-11T22:37:17;4.45;;;3.17;;
55220;SDS011;41089;51.448;6.604;2022-08-11T22:43:38;5.90;;;3.10;;
55220;SDS011;41089;51.448;6.604;2022-08-11T22:49:57;4.97;;;2.60;;
55220;SDS011;41089;51.448;6.604;2022-08-11T23:02:35;6.65;;;2.88;;
55220;SDS011;41089;51.448;6.604;2022-08-11T23:08:55;5.15;;;2.70;;
55220;SDS011;41089;51.448;6.604;2022-08-11T23:15:14;4.53;;;2.63;;
55220;SDS011;41089;51.448;6.604;2022-08-11T23:21:33;4.25;;;2.47;;
55220;SDS011;41089;51.448;6.604;2022-08-11T23:27:53;4.70;;;2.60;;
55220;SDS011;41089;51.448;6.604;2022-08-11T23:34:27;5.15;;;2.58;;
55220;SDS011;41089;51.448;6.604;2022-08-11T23:40:47;6.68;;;2.90;;
55220;SDS011;41089;51.448;6.604;2022-08-11T23:47:06;3.78;;;2.72;;
55220;SDS011;41089;51.448;6.604;2022-08-11T23:53:25;5.90;;;2.83;;
55220;SDS011;41089;51.448;6.604;2022-08-11T23:59:44;8.73;;;3.28;;
